Time;durP1;ratioP1;P1;durP2;ratioP2;P2;SDS_P1;SDS_P2;PMS_P1;PMS_P2;Temp;Humidity;BMP_temperature;BMP_pressure;BME280_temperature;BME280_humidity;BME280_pressure;Samples;Min_cycle;Max_cycle;Signal;HPM_P1;HPM_P2
2021/03/31 00:00:52;;;;;;;21.35;16.65;;;;;;;;;;2047981;29;20171;-62
2021/03/31 00:01:53;;;;;;;21.80;16.42;;;;;;;;;;2048832;29;20193;-61
2021/03/31 00:03:00;;;;;;;21.35;17.30;;;;;;;;;;2048243;29;20619;-61
2021/03/31 00:04:00;;;;;;;19.37;16.80;;;;;;;;;;2047208;29;20715;-62
2021/03/31 00:05:01;;;;;;;18.92;16.92;;;;;;;;;;2046214;29;20174;-62
2021/03/31 00:06:01;;;;;;;22.57;17.00;;;;;;;;;;2047762;29;20175;-63
2021/03/31 00:07:06;;;;;;;22.03;17.53;;;;;;;;;;2042468;29;20672;-63
2021/03/31 00:08:06;;;;;;;21.25;16.65;;;;;;;;;;2049028;29;20190;-62
2021/03/31 00:09:06;;;;;;;21.15;17.35;;;;;;;;;;2048927;29;20175;-64
2021/03/31 00:10:14;;;;;;;23.60;16.77;;;;;;;;;;2040593;29;20270;-62
2021/03/31 00:11:14;;;;;;;21.38;16.98;;;;;;;;;;2038054;29;20180;-62
2021/03/31 00:12:15;;;;;;;21.83;18.10;;;;;;;;;;2044485;29;20174;-63
2021/03/31 00:13:16;;;;;;;22.87;18.70;;;;;;;;;;2039895;29;20520;-61
2021/03/31 00:14:16;;;;;;;22.23;17.73;;;;;;;;;;2040259;29;20214;-61
2021/03/31 00:15:17;;;;;;;21.87;18.00;;;;;;;;;;2046593;29;20183;-61
2021/03/31 00:16:17;;;;;;;24.27;17.50;;;;;;;;;;2045229;29;20176;-63
2021/03/31 00:17:17;;;;;;;23.57;17.73;;;;;;;;;;2044494;29;20230;-61
2021/03/31 00:18:18;;;;;;;20.65;16.60;;;;;;;;;;2045755;29;20258;-61
2021/03/31 00:19:18;;;;;;;22.87;17.13;;;;;;;;;;2049383;29;20272;-61
2021/03/31 00:20:19;;;;;;;22.58;17.88;;;;;;;;;;2037737;29;20814;-63
2021/03/31 00:21:19;;;;;;;21.80;17.60;;;;;;;;;;2028155;29;20824;-63
2021/03/31 00:22:19;;;;;;;25.38;17.20;;;;;;;;;;2034739;29;20221;-63
2021/03/31 00:23:21;;;;;;;22.52;16.92;;;;;;;;;;2046712;29;20266;-63
2021/03/31 00:24:21;;;;;;;19.80;17.08;;;;;;;;;;2045638;29;20649;-62
2021/03/31 00:25:21;;;;;;;26.40;17.38;;;;;;;;;;2044723;29;20180;-61
2021/03/31 00:26:21;;;;;;;22.05;16.60;;;;;;;;;;2046521;29;20186;-62
2021/03/31 00:27:21;;;;;;;22.85;17.17;;;;;;;;;;2045269;29;20290;-62
2021/03/31 00:28:22;;;;;;;24.58;17.83;;;;;;;;;;2049220;28;20199;-60
2021/03/31 00:29:22;;;;;;;22.13;16.65;;;;;;;;;;2035763;29;20180;-62
2021/03/31 00:30:23;;;;;;;23.48;16.42;;;;;;;;;;2036767;29;20216;-63
2021/03/31 00:31:23;;;;;;;26.80;18.87;;;;;;;;;;2044566;29;20172;-61
2021/03/31 00:32:23;;;;;;;22.83;17.25;;;;;;;;;;2046667;29;20660;-62
2021/03/31 00:33:24;;;;;;;24.17;17.63;;;;;;;;;;2048225;29;20734;-62
2021/03/31 00:34:24;;;;;;;22.95;17.08;;;;;;;;;;2044400;29;20183;-63
2021/03/31 00:35:24;;;;;;;22.25;16.95;;;;;;;;;;2047325;29;20238;-63
2021/03/31 00:36:24;;;;;;;22.50;17.63;;;;;;;;;;2044089;29;20226;-62
2021/03/31 00:37:25;;;;;;;22.45;17.73;;;;;;;;;;2036662;29;20194;-62
2021/03/31 00:38:25;;;;;;;22.40;17.67;;;;;;;;;;2040300;29;20274;-61
2021/03/31 00:39:25;;;;;;;20.73;16.87;;;;;;;;;;2035819;29;20176;-61
2021/03/31 00:40:27;;;;;;;22.70;17.77;;;;;;;;;;2035682;29;20681;-61
2021/03/31 00:41:27;;;;;;;23.55;17.35;;;;;;;;;;2033155;29;20259;-60
2021/03/31 00:42:27;;;;;;;20.95;17.80;;;;;;;;;;2049399;29;20662;-62
2021/03/31 00:43:27;;;;;;;24.13;18.83;;;;;;;;;;2044163;29;20719;-61
2021/03/31 00:44:28;;;;;;;25.75;17.30;;;;;;;;;;2048801;29;20191;-61
2021/03/31 00:45:28;;;;;;;20.77;17.40;;;;;;;;;;2039868;29;20183;-56
2021/03/31 00:46:28;;;;;;;22.88;17.77;;;;;;;;;;2040061;29;20678;-57
2021/03/31 00:47:28;;;;;;;26.83;18.90;;;;;;;;;;2036525;29;20291;-59
2021/03/31 00:48:29;;;;;;;24.95;17.67;;;;;;;;;;2040537;29;20180;-60
2021/03/31 00:49:29;;;;;;;22.23;16.58;;;;;;;;;;2046023;29;20647;-62
2021/03/31 00:50:30;;;;;;;23.03;17.70;;;;;;;;;;2040079;29;20258;-62
2021/03/31 00:51:30;;;;;;;24.02;17.85;;;;;;;;;;2038206;29;20192;-60
2021/03/31 00:52:31;;;;;;;25.25;17.20;;;;;;;;;;2036480;29;20188;-62
2021/03/31 00:53:41;;;;;;;22.67;17.50;;;;;;;;;;2031861;29;20554;-62
2021/03/31 00:54:42;;;;;;;19.70;17.40;;;;;;;;;;2041493;29;20179;-62
2021/03/31 00:55:42;;;;;;;21.42;17.15;;;;;;;;;;2042405;29;20258;-63
2021/03/31 00:56:42;;;;;;;24.48;17.50;;;;;;;;;;2047892;29;20171;-63
2021/03/31 00:57:43;;;;;;;25.15;17.40;;;;;;;;;;2047150;29;20194;-61
2021/03/31 00:58:43;;;;;;;26.38;18.15;;;;;;;;;;2041886;29;20195;-62
2021/03/31 00:59:43;;;;;;;22.53;17.17;;;;;;;;;;2048448;29;20218;-62
2021/03/31 01:00:44;;;;;;;24.42;17.88;;;;;;;;;;2033067;29;20195;-63
2021/03/31 01:01:45;;;;;;;19.63;16.92;;;;;;;;;;2033433;29;20188;-63
2021/03/31 01:02:45;;;;;;;22.63;17.23;;;;;;;;;;2048228;29;20258;-62
2021/03/31 01:03:45;;;;;;;25.10;18.27;;;;;;;;;;2041004;29;20179;-61
2021/03/31 01:04:45;;;;;;;21.90;16.37;;;;;;;;;;2040903;29;20195;-61
2021/03/31 01:05:46;;;;;;;22.93;17.00;;;;;;;;;;2051687;29;20171;-63
2021/03/31 01:06:46;;;;;;;27.73;18.83;;;;;;;;;;2035848;29;20235;-61
2021/03/31 01:07:47;;;;;;;27.43;18.87;;;;;;;;;;2042207;29;20306;-61
2021/03/31 01:08:47;;;;;;;24.08;16.98;;;;;;;;;;2050340;29;20187;-62
2021/03/31 01:09:48;;;;;;;21.83;18.03;;;;;;;;;;2051605;29;20241;-60
2021/03/31 01:10:50;;;;;;;22.60;17.37;;;;;;;;;;2044590;29;20184;-64
2021/03/31 01:11:55;;;;;;;25.97;17.83;;;;;;;;;;2042733;29;20187;-65
2021/03/31 01:12:55;;;;;;;23.67;17.27;;;;;;;;;;2048671;29;20176;-60
2021/03/31 01:13:56;;;;;;;22.53;17.83;;;;;;;;;;2049980;29;20166;-63
2021/03/31 01:14:56;;;;;;;24.50;18.30;;;;;;;;;;2047122;29;20179;-59
2021/03/31 01:15:59;;;;;;;26.27;17.85;;;;;;;;;;2050479;29;20643;-62
2021/03/31 01:17:03;;;;;;;23.13;18.17;;;;;;;;;;2041557;29;20282;-61
2021/03/31 01:18:10;;;;;;;23.07;17.00;;;;;;;;;;2039730;29;20218;-63
2021/03/31 01:19:33;;;;;;;22.58;17.73;;;;;;;;;;2047358;29;20219;-63
2021/03/31 01:20:52;;;;;;;23.83;17.47;;;;;;;;;;2047350;29;20241;-62
2021/03/31 01:21:59;;;;;;;22.17;17.10;;;;;;;;;;2044712;29;20540;-61
2021/03/31 01:23:18;;;;;;;24.60;17.67;;;;;;;;;;2043616;29;20227;-63
2021/03/31 01:24:37;;;;;;;22.83;17.48;;;;;;;;;;2038985;29;20671;-63
2021/03/31 01:25:53;;;;;;;22.95;17.67;;;;;;;;;;2043462;29;20263;-61
2021/03/31 01:27:12;;;;;;;21.50;16.95;;;;;;;;;;2045281;29;20195;-62
2021/03/31 01:28:31;;;;;;;23.60;18.03;;;;;;;;;;2047262;29;20584;-63
2021/03/31 01:29:31;;;;;;;24.03;17.30;;;;;;;;;;2044334;29;20194;-62
2021/03/31 01:31:04;;;;;;;23.70;17.75;;;;;;;;;;2042658;29;20198;-62
2021/03/31 01:32:15;;;;;;;23.00;18.67;;;;;;;;;;2004156;29;20197;-61
2021/03/31 01:33:35;;;;;;;19.63;15.73;;;;;;;;;;2033239;29;20700;-62
2021/03/31 01:34:38;;;;;;;23.27;17.90;;;;;;;;;;2050676;29;20175;-59
2021/03/31 01:35:39;;;;;;;24.00;17.17;;;;;;;;;;2043904;29;20187;-62
2021/03/31 01:36:42;;;;;;;24.35;18.35;;;;;;;;;;2034903;29;20214;-63
2021/03/31 01:37:50;;;;;;;25.63;18.92;;;;;;;;;;2038747;29;20194;-63
2021/03/31 01:38:55;;;;;;;22.97;16.47;;;;;;;;;;2042760;29;20179;-62
2021/03/31 01:39:56;;;;;;;23.93;17.27;;;;;;;;;;2042214;29;20180;-62
2021/03/31 01:40:58;;;;;;;20.85;16.48;;;;;;;;;;2045441;29;20179;-61
2021/03/31 01:42:00;;;;;;;22.47;17.37;;;;;;;;;;2050396;29;20253;-64
2021/03/31 01:43:03;;;;;;;24.40;17.67;;;;;;;;;;2039863;29;20179;-64
2021/03/31 01:44:07;;;;;;;24.35;17.83;;;;;;;;;;2041199;29;20213;-62
2021/03/31 01:45:09;;;;;;;21.60;17.02;;;;;;;;;;2048356;29;20187;-61
2021/03/31 01:46:09;;;;;;;24.52;18.90;;;;;;;;;;2042960;29;20187;-60
2021/03/31 01:47:12;;;;;;;25.20;18.08;;;;;;;;;;2042052;29;20294;-59
2021/03/31 01:48:14;;;;;;;24.98;17.20;;;;;;;;;;2049479;28;20204;-61
2021/03/31 01:49:15;;;;;;;21.52;16.90;;;;;;;;;;2047053;29;20187;-63
2021/03/31 01:50:16;;;;;;;23.33;17.00;;;;;;;;;;2036513;29;20492;-61
2021/03/31 01:51:17;;;;;;;22.13;17.07;;;;;;;;;;2036918;29;20172;-62
2021/03/31 01:52:19;;;;;;;22.27;17.25;;;;;;;;;;2048959;29;20555;-62
2021/03/31 01:53:20;;;;;;;24.30;17.65;;;;;;;;;;2048147;29;20267;-62
2021/03/31 01:54:20;;;;;;;21.92;16.15;;;;;;;;;;2046333;29;20553;-62
2021/03/31 01:55:22;;;;;;;20.87;16.57;;;;;;;;;;2044749;29;20167;-62
2021/03/31 01:56:24;;;;;;;23.48;17.00;;;;;;;;;;2044026;29;20684;-62
2021/03/31 01:57:25;;;;;;;20.70;16.58;;;;;;;;;;2042347;29;20274;-62
2021/03/31 01:58:26;;;;;;;20.13;16.55;;;;;;;;;;2057072;23;20293;-53
2021/03/31 01:59:26;;;;;;;21.38;16.10;;;;;;;;;;2048491;28;20186;-55
2021/03/31 02:00:29;;;;;;;22.80;16.83;;;;;;;;;;2050137;28;20167;-57
2021/03/31 02:01:30;;;;;;;24.00;17.55;;;;;;;;;;2040568;29;20180;-55
2021/03/31 02:02:31;;;;;;;22.25;15.75;;;;;;;;;;2045095;28;20186;-56
2021/03/31 02:03:31;;;;;;;18.42;16.48;;;;;;;;;;2054713;28;20271;-57
2021/03/31 02:04:32;;;;;;;19.52;16.05;;;;;;;;;;2056313;28;20576;-57
2021/03/31 02:05:33;;;;;;;21.45;17.23;;;;;;;;;;2056598;28;20181;-58
2021/03/31 02:06:33;;;;;;;20.27;17.25;;;;;;;;;;2055974;28;20176;-57
2021/03/31 02:07:33;;;;;;;21.60;17.08;;;;;;;;;;2054093;28;20253;-54
2021/03/31 02:08:34;;;;;;;25.98;17.52;;;;;;;;;;2055089;28;20281;-56
2021/03/31 02:09:36;;;;;;;25.07;16.87;;;;;;;;;;2054600;28;20198;-57
2021/03/31 02:10:37;;;;;;;20.60;17.00;;;;;;;;;;2055775;28;20177;-58
2021/03/31 02:11:40;;;;;;;20.05;16.45;;;;;;;;;;2056782;28;20190;-55
2021/03/31 02:12:41;;;;;;;23.88;17.42;;;;;;;;;;2053257;28;20183;-56
2021/03/31 02:13:41;;;;;;;22.70;17.00;;;;;;;;;;2055341;28;20178;-59
2021/03/31 02:14:43;;;;;;;22.65;16.65;;;;;;;;;;2053697;28;20805;-59
2021/03/31 02:15:43;;;;;;;17.93;15.23;;;;;;;;;;2054581;28;20182;-59
2021/03/31 02:16:44;;;;;;;20.98;15.90;;;;;;;;;;2047275;29;20627;-55
2021/03/31 02:17:45;;;;;;;23.75;16.38;;;;;;;;;;2047467;29;20171;-57
2021/03/31 02:18:46;;;;;;;23.33;16.83;;;;;;;;;;2054826;28;20194;-54
2021/03/31 02:19:47;;;;;;;18.10;15.77;;;;;;;;;;2039614;29;20183;-56
2021/03/31 02:20:51;;;;;;;22.47;17.10;;;;;;;;;;2039665;29;20239;-53
2021/03/31 02:21:51;;;;;;;22.52;15.90;;;;;;;;;;2055224;28;20560;-55
2021/03/31 02:22:53;;;;;;;23.07;16.70;;;;;;;;;;2055258;28;20186;-57
2021/03/31 02:23:53;;;;;;;23.03;16.97;;;;;;;;;;2047048;29;20182;-55
2021/03/31 02:24:54;;;;;;;21.10;15.93;;;;;;;;;;2047000;29;20241;-58
2021/03/31 02:25:55;;;;;;;21.43;16.90;;;;;;;;;;2046629;29;20665;-56
2021/03/31 02:26:55;;;;;;;20.23;16.27;;;;;;;;;;2040015;29;20278;-53
2021/03/31 02:27:55;;;;;;;21.47;15.57;;;;;;;;;;2047131;28;20558;-53
2021/03/31 02:28:56;;;;;;;20.00;16.77;;;;;;;;;;2056536;28;20592;-54
2021/03/31 02:29:56;;;;;;;20.17;16.65;;;;;;;;;;2055544;28;20174;-55
2021/03/31 02:30:57;;;;;;;23.87;17.87;;;;;;;;;;2056451;28;20612;-55
2021/03/31 02:31:58;;;;;;;22.23;17.00;;;;;;;;;;2055659;28;20166;-56
2021/03/31 02:33:03;;;;;;;21.75;16.85;;;;;;;;;;2054120;28;20636;-56
2021/03/31 02:34:05;;;;;;;20.73;16.33;;;;;;;;;;2055173;28;20178;-58
2021/03/31 02:35:05;;;;;;;22.27;16.53;;;;;;;;;;2058613;28;20205;-54
2021/03/31 02:36:06;;;;;;;21.93;17.40;;;;;;;;;;2053807;28;20183;-57
2021/03/31 02:37:06;;;;;;;22.53;16.50;;;;;;;;;;2055899;28;20175;-56
2021/03/31 02:38:08;;;;;;;22.90;15.80;;;;;;;;;;2055361;28;20233;-54
2021/03/31 02:39:09;;;;;;;21.80;16.55;;;;;;;;;;2053887;28;20182;-59
2021/03/31 02:40:10;;;;;;;20.23;15.83;;;;;;;;;;2053955;28;20212;-58
2021/03/31 02:41:11;;;;;;;21.02;17.00;;;;;;;;;;2055815;28;20647;-54
2021/03/31 02:42:13;;;;;;;24.02;17.92;;;;;;;;;;2055796;28;20185;-59
2021/03/31 02:43:14;;;;;;;23.47;17.20;;;;;;;;;;2055583;28;20186;-58
2021/03/31 02:44:16;;;;;;;23.13;16.80;;;;;;;;;;2052363;28;20175;-55
2021/03/31 02:45:17;;;;;;;20.67;16.52;;;;;;;;;;2056988;28;20533;-57
2021/03/31 02:46:19;;;;;;;23.47;17.17;;;;;;;;;;2057983;28;20240;-55
2021/03/31 02:47:24;;;;;;;22.90;17.63;;;;;;;;;;2055877;28;20658;-59
2021/03/31 02:48:25;;;;;;;22.33;17.33;;;;;;;;;;2048219;28;20201;-56
2021/03/31 02:49:26;;;;;;;21.48;17.27;;;;;;;;;;2047970;29;20322;-58
2021/03/31 02:50:28;;;;;;;24.73;17.50;;;;;;;;;;2057481;28;20179;-57
2021/03/31 02:51:32;;;;;;;20.37;17.03;;;;;;;;;;2057085;28;20273;-58
2021/03/31 02:52:33;;;;;;;23.40;17.07;;;;;;;;;;2057653;28;20174;-56
2021/03/31 02:53:34;;;;;;;22.33;17.20;;;;;;;;;;2053854;28;20245;-58
2021/03/31 02:54:34;;;;;;;22.50;17.17;;;;;;;;;;2057371;28;20246;-59
2021/03/31 02:55:34;;;;;;;19.65;15.55;;;;;;;;;;2052287;28;20171;-58
2021/03/31 02:56:38;;;;;;;20.97;16.40;;;;;;;;;;2055362;28;20244;-59
2021/03/31 02:57:38;;;;;;;22.47;16.77;;;;;;;;;;2057159;28;20212;-53
2021/03/31 02:58:39;;;;;;;25.03;17.17;;;;;;;;;;2057411;28;20206;-57
2021/03/31 02:59:40;;;;;;;22.08;16.70;;;;;;;;;;2056632;28;20236;-55
2021/03/31 03:00:41;;;;;;;22.85;17.08;;;;;;;;;;2057625;28;20761;-55
2021/03/31 03:01:41;;;;;;;23.65;16.77;;;;;;;;;;2057403;28;20197;-57
2021/03/31 03:02:43;;;;;;;19.70;16.90;;;;;;;;;;2057765;28;20189;-54
2021/03/31 03:03:43;;;;;;;23.37;16.57;;;;;;;;;;2056858;28;20258;-58
2021/03/31 03:04:47;;;;;;;20.67;16.83;;;;;;;;;;2056641;28;20166;-58
2021/03/31 03:05:48;;;;;;;22.47;16.70;;;;;;;;;;2049133;29;20190;-56
2021/03/31 03:06:49;;;;;;;19.57;16.23;;;;;;;;;;2048569;29;20187;-55
2021/03/31 03:07:49;;;;;;;21.27;16.57;;;;;;;;;;2057566;28;20166;-57
2021/03/31 03:08:50;;;;;;;20.00;16.25;;;;;;;;;;2056992;28;20190;-59
2021/03/31 03:09:52;;;;;;;21.63;17.73;;;;;;;;;;2052270;28;20213;-57
2021/03/31 03:10:55;;;;;;;20.23;17.23;;;;;;;;;;2055188;28;20213;-56
2021/03/31 03:11:56;;;;;;;21.63;16.57;;;;;;;;;;2057483;28;20213;-56
2021/03/31 03:12:57;;;;;;;20.03;16.27;;;;;;;;;;2057212;28;20166;-55
2021/03/31 03:13:58;;;;;;;23.30;17.13;;;;;;;;;;2057219;28;20221;-57
2021/03/31 03:14:59;;;;;;;21.63;15.07;;;;;;;;;;2054483;28;20599;-57
2021/03/31 03:16:00;;;;;;;21.38;16.95;;;;;;;;;;2058000;28;20261;-55
2021/03/31 03:17:00;;;;;;;22.30;17.02;;;;;;;;;;2048823;29;20203;-57
2021/03/31 03:18:00;;;;;;;23.67;18.17;;;;;;;;;;2048543;28;20186;-57
2021/03/31 03:19:01;;;;;;;22.30;17.92;;;;;;;;;;2056803;28;20205;-59
2021/03/31 03:20:01;;;;;;;27.30;18.87;;;;;;;;;;2056773;28;20178;-58
2021/03/31 03:21:02;;;;;;;24.83;19.60;;;;;;;;;;2052314;28;20675;-58
2021/03/31 03:22:02;;;;;;;25.13;18.30;;;;;;;;;;2057468;28;20170;-54
2021/03/31 03:23:02;;;;;;;25.13;19.30;;;;;;;;;;2057092;28;20229;-56
2021/03/31 03:24:03;;;;;;;22.55;16.90;;;;;;;;;;2056976;28;20174;-58
2021/03/31 03:25:04;;;;;;;21.40;17.53;;;;;;;;;;2052173;28;20201;-57
2021/03/31 03:26:04;;;;;;;22.37;17.50;;;;;;;;;;2055136;28;20183;-54
2021/03/31 03:27:05;;;;;;;22.70;17.57;;;;;;;;;;2051605;28;20207;-58
2021/03/31 03:28:05;;;;;;;22.73;18.87;;;;;;;;;;2056497;28;20701;-57
2021/03/31 03:29:06;;;;;;;24.47;17.37;;;;;;;;;;2057852;28;20174;-54
2021/03/31 03:30:09;;;;;;;23.50;17.80;;;;;;;;;;2047852;29;20171;-61
2021/03/31 03:31:09;;;;;;;22.67;17.60;;;;;;;;;;2048610;28;20294;-57
2021/03/31 03:32:10;;;;;;;20.07;16.10;;;;;;;;;;2056893;28;20759;-57
2021/03/31 03:33:10;;;;;;;21.33;17.20;;;;;;;;;;2056767;28;20631;-53
2021/03/31 03:34:10;;;;;;;21.77;16.90;;;;;;;;;;2056576;28;20202;-56
2021/03/31 03:35:14;;;;;;;22.80;16.75;;;;;;;;;;2056999;28;20170;-55
2021/03/31 03:36:15;;;;;;;20.27;15.85;;;;;;;;;;2056889;28;20175;-54
2021/03/31 03:37:16;;;;;;;19.97;16.20;;;;;;;;;;2056971;28;20171;-57
2021/03/31 03:38:17;;;;;;;23.53;17.43;;;;;;;;;;2056873;28;20190;-57
2021/03/31 03:39:18;;;;;;;22.27;16.80;;;;;;;;;;2055999;28;20178;-57
2021/03/31 03:40:21;;;;;;;22.83;16.60;;;;;;;;;;2057419;28;20198;-57
2021/03/31 03:41:21;;;;;;;21.10;15.87;;;;;;;;;;2057055;28;20184;-57
2021/03/31 03:42:21;;;;;;;22.92;17.00;;;;;;;;;;2057011;28;20182;-58
2021/03/31 03:43:22;;;;;;;22.00;16.33;;;;;;;;;;2054683;28;20174;-54
2021/03/31 03:44:22;;;;;;;21.60;16.27;;;;;;;;;;2057268;28;20182;-55
2021/03/31 03:45:24;;;;;;;21.03;16.63;;;;;;;;;;2056272;28;20174;-57
2021/03/31 03:46:28;;;;;;;20.95;16.80;;;;;;;;;;2056854;28;20209;-54
2021/03/31 03:47:29;;;;;;;22.97;15.77;;;;;;;;;;2054929;28;20296;-55
2021/03/31 03:48:29;;;;;;;21.30;16.55;;;;;;;;;;2056404;28;20186;-57
2021/03/31 03:49:30;;;;;;;21.95;16.27;;;;;;;;;;2057277;28;20210;-57
2021/03/31 03:50:30;;;;;;;21.83;16.47;;;;;;;;;;2056813;28;20249;-53
2021/03/31 03:51:31;;;;;;;19.33;14.90;;;;;;;;;;2057208;28;20190;-57
2021/03/31 03:52:31;;;;;;;20.10;15.73;;;;;;;;;;2056888;28;20183;-56
2021/03/31 03:53:32;;;;;;;21.03;16.40;;;;;;;;;;2053243;28;20743;-55
2021/03/31 03:54:32;;;;;;;24.57;16.27;;;;;;;;;;2055319;28;20166;-54
2021/03/31 03:55:34;;;;;;;19.37;16.07;;;;;;;;;;2047377;28;20274;-58
2021/03/31 03:56:34;;;;;;;20.83;15.77;;;;;;;;;;2048129;28;20175;-56
2021/03/31 03:57:34;;;;;;;18.13;14.97;;;;;;;;;;2056699;28;20210;-58
2021/03/31 03:58:35;;;;;;;19.07;16.47;;;;;;;;;;2054931;28;20237;-56
2021/03/31 03:59:35;;;;;;;24.07;16.43;;;;;;;;;;2056536;28;20202;-57
2021/03/31 04:00:35;;;;;;;24.67;16.87;;;;;;;;;;2056606;28;20183;-56
2021/03/31 04:01:36;;;;;;;21.77;15.57;;;;;;;;;;2056758;28;20186;-55
2021/03/31 04:02:36;;;;;;;19.57;16.70;;;;;;;;;;2048838;29;20194;-53
2021/03/31 04:03:36;;;;;;;23.10;17.57;;;;;;;;;;2039686;29;20547;-57
2021/03/31 04:04:36;;;;;;;22.73;16.20;;;;;;;;;;2047216;29;20186;-54
2021/03/31 04:05:37;;;;;;;18.10;15.57;;;;;;;;;;2048120;29;20186;-56
2021/03/31 04:06:37;;;;;;;20.77;15.93;;;;;;;;;;2040193;29;20562;-57
2021/03/31 04:07:37;;;;;;;21.87;15.80;;;;;;;;;;2048177;29;20616;-54
2021/03/31 04:08:37;;;;;;;20.13;16.13;;;;;;;;;;2057439;28;20566;-57
2021/03/31 04:09:41;;;;;;;19.40;15.57;;;;;;;;;;2056651;28;20170;-56
2021/03/31 04:10:43;;;;;;;20.17;15.90;;;;;;;;;;2056137;28;20174;-58
2021/03/31 04:11:44;;;;;;;22.37;15.93;;;;;;;;;;2056217;28;20178;-55
2021/03/31 04:12:45;;;;;;;20.47;15.50;;;;;;;;;;2057151;28;20698;-57
2021/03/31 04:13:46;;;;;;;20.97;16.00;;;;;;;;;;2056592;28;20181;-53
2021/03/31 04:14:46;;;;;;;22.30;16.00;;;;;;;;;;2055336;28;20631;-53
2021/03/31 04:15:49;;;;;;;21.20;14.70;;;;;;;;;;2054652;28;20174;-55
2021/03/31 04:16:50;;;;;;;22.53;16.23;;;;;;;;;;2048996;28;20686;-59
2021/03/31 04:17:50;;;;;;;24.93;15.73;;;;;;;;;;2056678;28;20189;-54
2021/03/31 04:18:51;;;;;;;22.58;16.02;;;;;;;;;;2056850;28;20197;-57
2021/03/31 04:19:53;;;;;;;22.05;15.32;;;;;;;;;;2056666;28;20178;-58
2021/03/31 04:20:54;;;;;;;16.27;14.13;;;;;;;;;;2056765;28;20177;-56
2021/03/31 04:21:54;;;;;;;26.30;15.27;;;;;;;;;;2051477;28;20199;-56
2021/03/31 04:22:54;;;;;;;19.33;15.33;;;;;;;;;;2047733;29;20252;-55
2021/03/31 04:23:55;;;;;;;19.67;15.17;;;;;;;;;;2041715;29;20168;-58
2021/03/31 04:24:55;;;;;;;18.58;14.05;;;;;;;;;;2055934;28;20226;-54
2021/03/31 04:25:57;;;;;;;20.15;15.43;;;;;;;;;;2048203;29;20198;-55
2021/03/31 04:26:58;;;;;;;23.07;15.13;;;;;;;;;;2040100;29;20184;-55
2021/03/31 04:28:02;;;;;;;19.17;14.87;;;;;;;;;;2048560;28;20253;-56
2021/03/31 04:29:02;;;;;;;22.27;14.68;;;;;;;;;;2055506;28;20695;-56
2021/03/31 04:30:10;;;;;;;22.77;16.17;;;;;;;;;;2056657;28;20193;-56
2021/03/31 04:31:10;;;;;;;24.27;16.13;;;;;;;;;;2054865;28;20190;-55
2021/03/31 04:32:15;;;;;;;20.58;15.77;;;;;;;;;;2056958;28;20233;-56
2021/03/31 04:33:16;;;;;;;22.00;15.40;;;;;;;;;;2047626;28;20188;-58
2021/03/31 04:34:17;;;;;;;18.23;14.90;;;;;;;;;;2048670;29;20253;-57
2021/03/31 04:35:18;;;;;;;24.13;16.43;;;;;;;;;;2056758;28;20654;-57
2021/03/31 04:36:19;;;;;;;22.02;16.02;;;;;;;;;;2056969;28;20177;-56
2021/03/31 04:37:19;;;;;;;19.50;15.80;;;;;;;;;;2056477;28;20257;-54
2021/03/31 04:38:19;;;;;;;20.07;16.00;;;;;;;;;;2057263;28;20193;-57
2021/03/31 04:39:21;;;;;;;19.07;14.73;;;;;;;;;;2057007;28;20186;-55
2021/03/31 04:40:22;;;;;;;20.57;15.37;;;;;;;;;;2056379;28;20178;-54
2021/03/31 04:41:22;;;;;;;21.42;15.57;;;;;;;;;;2056695;28;20178;-57
2021/03/31 04:42:23;;;;;;;22.13;16.35;;;;;;;;;;2056202;28;20678;-54
2021/03/31 04:43:24;;;;;;;23.55;15.45;;;;;;;;;;2057137;28;20646;-58
2021/03/31 04:44:24;;;;;;;20.43;14.60;;;;;;;;;;2053836;28;20174;-54
2021/03/31 04:45:25;;;;;;;18.97;15.27;;;;;;;;;;2048458;29;20182;-53
2021/03/31 04:46:25;;;;;;;23.30;14.90;;;;;;;;;;2047787;29;20220;-55
2021/03/31 04:47:25;;;;;;;18.55;14.95;;;;;;;;;;2048772;29;20428;-54
2021/03/31 04:48:26;;;;;;;20.77;15.83;;;;;;;;;;2041238;29;20195;-56
2021/03/31 04:49:26;;;;;;;19.47;14.90;;;;;;;;;;2046223;29;20637;-53
2021/03/31 04:50:26;;;;;;;20.90;15.65;;;;;;;;;;2055554;28;20182;-56
2021/03/31 04:51:26;;;;;;;21.03;14.80;;;;;;;;;;2057532;28;20170;-54
2021/03/31 04:52:29;;;;;;;19.77;15.47;;;;;;;;;;2057667;28;20170;-56
2021/03/31 04:53:29;;;;;;;18.80;15.50;;;;;;;;;;2048468;29;20187;-54
2021/03/31 04:54:29;;;;;;;17.40;14.27;;;;;;;;;;2048238;29;20350;-57
2021/03/31 04:55:30;;;;;;;18.43;14.77;;;;;;;;;;2056967;28;20337;-55
2021/03/31 04:56:30;;;;;;;23.30;15.83;;;;;;;;;;2056363;28;20178;-57
2021/03/31 04:57:30;;;;;;;20.43;15.37;;;;;;;;;;2056733;28;20282;-55
2021/03/31 04:58:30;;;;;;;20.70;15.13;;;;;;;;;;2056379;28;20269;-54
2021/03/31 04:59:31;;;;;;;21.17;15.57;;;;;;;;;;2056596;28;20292;-58
2021/03/31 05:00:31;;;;;;;17.20;15.17;;;;;;;;;;2055719;28;20189;-59
2021/03/31 05:01:31;;;;;;;21.57;16.37;;;;;;;;;;2057325;28;20273;-56
2021/03/31 05:02:31;;;;;;;21.83;15.43;;;;;;;;;;2056606;28;20182;-56
2021/03/31 05:03:32;;;;;;;20.77;14.93;;;;;;;;;;2048225;29;20726;-58
2021/03/31 05:04:32;;;;;;;21.07;15.23;;;;;;;;;;2048394;29;20262;-57
2021/03/31 05:05:33;;;;;;;19.30;15.33;;;;;;;;;;2057134;28;20178;-56
2021/03/31 05:06:33;;;;;;;21.40;14.93;;;;;;;;;;2056905;28;20186;-58
2021/03/31 05:07:33;;;;;;;19.93;15.90;;;;;;;;;;2050113;29;20214;-58
2021/03/31 05:08:33;;;;;;;17.97;14.57;;;;;;;;;;2048744;28;20195;-56
2021/03/31 05:09:33;;;;;;;20.07;15.87;;;;;;;;;;2055115;28;20213;-56
2021/03/31 05:10:34;;;;;;;21.23;15.43;;;;;;;;;;2055156;28;20194;-54
2021/03/31 05:11:34;;;;;;;19.87;15.20;;;;;;;;;;2054920;28;20182;-54
2021/03/31 05:12:34;;;;;;;18.50;15.30;;;;;;;;;;2056075;28;20167;-54
2021/03/31 05:13:35;;;;;;;21.88;14.93;;;;;;;;;;2055624;28;20174;-54
2021/03/31 05:14:35;;;;;;;22.40;15.43;;;;;;;;;;2057683;28;20174;-57
2021/03/31 05:15:35;;;;;;;18.80;14.30;;;;;;;;;;2056290;28;20228;-58
2021/03/31 05:16:35;;;;;;;21.75;15.60;;;;;;;;;;2057389;28;20186;-56
2021/03/31 05:17:36;;;;;;;20.23;14.87;;;;;;;;;;2057900;28;20171;-56
2021/03/31 05:18:36;;;;;;;22.07;14.43;;;;;;;;;;2048829;28;20191;-58
2021/03/31 05:19:36;;;;;;;18.03;15.00;;;;;;;;;;2049387;29;20205;-55
2021/03/31 05:20:37;;;;;;;19.70;15.83;;;;;;;;;;2048314;29;20245;-62
2021/03/31 05:21:37;;;;;;;22.53;14.97;;;;;;;;;;2048268;29;20751;-55
2021/03/31 05:22:38;;;;;;;19.50;15.20;;;;;;;;;;2048678;29;20183;-58
2021/03/31 05:23:38;;;;;;;17.97;14.57;;;;;;;;;;2047746;29;20178;-57
2021/03/31 05:24:38;;;;;;;22.53;14.37;;;;;;;;;;2055751;28;20226;-59
2021/03/31 05:25:39;;;;;;;21.53;15.57;;;;;;;;;;2056558;28;20174;-56
2021/03/31 05:26:39;;;;;;;21.33;14.90;;;;;;;;;;2055901;28;20193;-59
2021/03/31 05:27:39;;;;;;;20.43;14.93;;;;;;;;;;2056494;28;20345;-53
2021/03/31 05:28:40;;;;;;;20.20;14.83;;;;;;;;;;2044825;28;20702;-57
2021/03/31 05:29:40;;;;;;;19.33;14.97;;;;;;;;;;2039992;29;20202;-57
2021/03/31 05:30:40;;;;;;;19.77;14.73;;;;;;;;;;2055399;28;20182;-57
2021/03/31 05:31:40;;;;;;;16.17;13.30;;;;;;;;;;2047789;29;20238;-58
2021/03/31 05:32:41;;;;;;;21.47;14.73;;;;;;;;;;2045729;29;20708;-57
2021/03/31 05:33:41;;;;;;;18.93;14.33;;;;;;;;;;2053019;28;20192;-60
2021/03/31 05:34:42;;;;;;;20.60;15.13;;;;;;;;;;2056603;28;20190;-57
2021/03/31 05:35:42;;;;;;;21.03;14.83;;;;;;;;;;2042921;29;20179;-57
2021/03/31 05:36:42;;;;;;;19.98;15.20;;;;;;;;;;2037572;29;20172;-59
2021/03/31 05:37:43;;;;;;;21.80;15.10;;;;;;;;;;2044004;29;20187;-57
2021/03/31 05:38:43;;;;;;;23.10;14.13;;;;;;;;;;2050369;28;20205;-56
2021/03/31 05:39:43;;;;;;;19.30;14.53;;;;;;;;;;2039201;29;20180;-56
2021/03/31 05:40:43;;;;;;;21.53;15.17;;;;;;;;;;2035643;29;20190;-57
2021/03/31 05:41:44;;;;;;;20.90;15.03;;;;;;;;;;2055519;28;20182;-55
2021/03/31 05:42:44;;;;;;;18.57;15.03;;;;;;;;;;2055243;28;20237;-52
2021/03/31 05:43:45;;;;;;;20.90;14.27;;;;;;;;;;2047186;29;20270;-57
2021/03/31 05:44:45;;;;;;;20.48;14.88;;;;;;;;;;2045587;29;20824;-56
2021/03/31 05:45:46;;;;;;;23.33;15.43;;;;;;;;;;2038687;29;20266;-55
2021/03/31 05:46:47;;;;;;;19.50;16.05;;;;;;;;;;2037431;29;20670;-55
2021/03/31 05:47:47;;;;;;;19.52;15.02;;;;;;;;;;2056259;28;21093;-53
2021/03/31 05:48:48;;;;;;;20.23;15.30;;;;;;;;;;2056484;28;20204;-57
2021/03/31 05:49:49;;;;;;;21.98;16.02;;;;;;;;;;2056566;28;20186;-58
2021/03/31 05:50:49;;;;;;;21.23;15.47;;;;;;;;;;2058064;28;20178;-57
2021/03/31 05:51:49;;;;;;;19.83;15.43;;;;;;;;;;2056097;28;20198;-58
2021/03/31 05:52:49;;;;;;;20.03;15.53;;;;;;;;;;2056166;28;20265;-57
2021/03/31 05:53:50;;;;;;;20.73;15.67;;;;;;;;;;2046861;29;20561;-60
2021/03/31 05:54:50;;;;;;;22.47;15.50;;;;;;;;;;2040216;29;20210;-57
2021/03/31 05:55:51;;;;;;;22.83;16.17;;;;;;;;;;2046976;29;20198;-58
2021/03/31 05:56:52;;;;;;;19.07;15.33;;;;;;;;;;2053130;28;20715;-59
2021/03/31 05:57:53;;;;;;;18.58;14.55;;;;;;;;;;2056567;28;20182;-58